createdAt,value
2022-08-27T00:02:15.682Z,32.20
2022-08-27T00:04:47.470Z,32.20
2022-08-27T00:07:19.561Z,32.30
2022-08-27T00:09:51.933Z,32.50
2022-08-27T00:12:23.680Z,32.50
2022-08-27T00:14:54.501Z,32.50
2022-08-27T00:17:26.213Z,32.30
2022-08-27T00:19:56.304Z,32.30
2022-08-27T00:22:27.806Z,32.20
2022-08-27T00:24:58.160Z,32.40
2022-08-27T00:27:28.798Z,32.30
2022-08-27T00:29:58.348Z,32.30
2022-08-27T00:32:29.934Z,32.30
2022-08-27T00:35:04.936Z,32.40
2022-08-27T00:37:40.051Z,32.20
2022-08-27T00:40:17.570Z,32.00
2022-08-27T00:42:51.263Z,31.80
2022-08-27T00:45:23.909Z,31.80
2022-08-27T00:47:58.261Z,31.80
2022-08-27T00:50:38.144Z,31.70
2022-08-27T00:53:20.678Z,31.60
2022-08-27T00:56:00.473Z,31.50
2022-08-27T00:58:32.277Z,31.50
2022-08-27T01:01:08.408Z,31.40
2022-08-27T01:03:41.057Z,31.30
2022-08-27T01:06:16.165Z,31.30
2022-08-27T01:08:59.368Z,31.30
2022-08-27T01:11:30.260Z,31.20
2022-08-27T01:14:01.397Z,31.10
2022-08-27T01:16:41.634Z,31.00
2022-08-27T01:19:42.373Z,31.00
2022-08-27T01:22:23.414Z,30.90
2022-08-27T01:25:00.142Z,30.90
2022-08-27T01:27:35.406Z,30.80
2022-08-27T01:30:08.112Z,30.80
2022-08-27T01:32:40.316Z,30.80
2022-08-27T01:35:15.843Z,30.80
2022-08-27T01:37:52.232Z,30.70
2022-08-27T01:40:26.019Z,30.70
2022-08-27T01:43:00.572Z,30.60
2022-08-27T01:45:36.800Z,30.60
2022-08-27T01:48:09.637Z,30.60
2022-08-27T01:50:56.820Z,30.60
2022-08-27T01:53:29.791Z,30.60
2022-08-27T01:56:00.774Z,30.50
2022-08-27T01:58:35.143Z,30.50
2022-08-27T02:01:09.963Z,30.40
2022-08-27T02:03:43.424Z,30.40
2022-08-27T02:06:15.234Z,30.20
2022-08-27T02:08:51.664Z,30.20
2022-08-27T02:11:22.112Z,30.00
2022-08-27T02:13:53.149Z,30.00
2022-08-27T02:16:24.717Z,30.00
2022-08-27T02:18:56.726Z,29.90
2022-08-27T02:21:27.758Z,29.90
2022-08-27T02:23:58.805Z,29.80
2022-08-27T02:26:30.857Z,29.80
2022-08-27T02:29:02.372Z,29.80
2022-08-27T02:31:36.282Z,29.70
2022-08-27T02:34:08.237Z,29.70
2022-08-27T02:36:48.256Z,29.70
2022-08-27T02:39:21.068Z,29.60
2022-08-27T02:41:57.282Z,29.60
2022-08-27T02:44:29.193Z,29.50
2022-08-27T02:47:05.889Z,29.50
2022-08-27T02:49:37.918Z,29.40
2022-08-27T02:52:08.948Z,29.40
2022-08-27T02:54:41.975Z,29.40
2022-08-27T02:57:13.688Z,29.40
2022-08-27T02:59:44.152Z,29.30
2022-08-27T03:02:17.051Z,29.30
2022-08-27T03:04:48.393Z,29.30
2022-08-27T03:07:28.503Z,29.30
2022-08-27T03:10:01.200Z,29.30
2022-08-27T03:12:34.007Z,29.20
2022-08-27T03:15:14.306Z,29.20
2022-08-27T03:18:02.611Z,29.20
2022-08-27T03:20:35.084Z,29.20
2022-08-27T03:23:07.515Z,29.10
2022-08-27T03:25:38.895Z,29.00
2022-08-27T03:28:22.905Z,29.00
2022-08-27T03:30:59.590Z,29.00
2022-08-27T03:33:39.303Z,29.00
2022-08-27T03:36:10.124Z,28.90
2022-08-27T03:38:41.814Z,28.90
2022-08-27T03:41:12.765Z,28.90
2022-08-27T03:43:45.563Z,28.90
2022-08-27T03:46:22.990Z,28.90
2022-08-27T03:48:57.428Z,28.90
2022-08-27T03:51:29.064Z,28.70
2022-08-27T03:54:02.024Z,28.60
2022-08-27T03:56:40.833Z,28.60
2022-08-27T03:59:10.746Z,28.60
2022-08-27T04:01:41.346Z,28.50
2022-08-27T04:04:13.151Z,28.50
2022-08-27T04:06:43.561Z,28.50
2022-08-27T04:09:14.303Z,28.40
2022-08-27T04:11:45.151Z,28.30
2022-08-27T04:14:22.614Z,28.40
2022-08-27T04:16:59.866Z,28.30
2022-08-27T04:19:31.367Z,28.40
2022-08-27T04:22:07.077Z,28.30
2022-08-27T04:24:39.986Z,28.30
2022-08-27T04:27:12.529Z,28.20
2022-08-27T04:29:45.572Z,28.20
2022-08-27T04:32:21.490Z,28.30
2022-08-27T04:34:55.225Z,28.40
2022-08-27T04:37:26.520Z,28.30
2022-08-27T04:39:58.425Z,28.30
2022-08-27T04:42:29.370Z,28.30
2022-08-27T04:44:59.369Z,28.30
2022-08-27T04:47:30.435Z,28.30
2022-08-27T04:50:01.746Z,28.20
2022-08-27T04:52:40.343Z,28.20
2022-08-27T04:55:15.423Z,28.20
2022-08-27T04:57:46.124Z,28.20
2022-08-27T05:00:16.421Z,28.20
2022-08-27T05:02:48.816Z,28.10
2022-08-27T05:05:20.314Z,28.10
2022-08-27T05:07:52.135Z,28.10
2022-08-27T05:10:25.072Z,28.10
2022-08-27T05:13:00.041Z,28.00
2022-08-27T05:15:43.576Z,28.00
2022-08-27T05:18:14.357Z,27.90
2022-08-27T05:20:50.831Z,27.90
2022-08-27T05:23:23.164Z,27.90
2022-08-27T05:25:55.412Z,28.00
2022-08-27T05:28:29.053Z,27.90
2022-08-27T05:31:10.822Z,28.00
2022-08-27T05:33:41.987Z,28.00
2022-08-27T05:36:22.355Z,27.90
2022-08-27T05:38:52.753Z,27.90
2022-08-27T05:41:34.532Z,27.80
2022-08-27T05:44:37.204Z,27.90
2022-08-27T05:47:02.211Z,27.90
2022-08-27T05:49:34.295Z,27.90
2022-08-27T05:52:04.661Z,27.80
2022-08-27T05:54:37.267Z,27.80
2022-08-27T05:57:09.818Z,27.80
2022-08-27T05:59:59.229Z,27.80
2022-08-27T06:02:31.686Z,27.70
2022-08-27T06:05:10.017Z,27.70
2022-08-27T06:07:40.000Z,27.80
2022-08-27T06:10:10.203Z,27.70
2022-08-27T06:12:43.356Z,27.70
2022-08-27T06:15:16.331Z,27.70
2022-08-27T06:17:46.796Z,27.60
2022-08-27T06:20:23.492Z,27.50
2022-08-27T06:22:54.862Z,27.50
2022-08-27T06:25:25.173Z,27.40
2022-08-27T06:27:56.671Z,27.40
2022-08-27T06:30:32.097Z,27.30
2022-08-27T06:33:04.367Z,27.30
2022-08-27T06:35:44.227Z,27.30
2022-08-27T06:38:14.974Z,27.20
2022-08-27T06:40:47.062Z,27.20
2022-08-27T06:43:20.168Z,27.20
2022-08-27T06:45:54.355Z,27.20
2022-08-27T06:48:28.884Z,27.20
2022-08-27T06:51:10.131Z,27.20
2022-08-27T06:53:41.340Z,27.10
2022-08-27T06:56:14.706Z,27.10
2022-08-27T06:58:44.491Z,27.00
2022-08-27T07:01:25.739Z,26.90
2022-08-27T07:04:00.454Z,26.90
2022-08-27T07:06:37.602Z,26.90
2022-08-27T07:09:11.330Z,26.70
2022-08-27T07:11:45.095Z,26.80
2022-08-27T07:14:15.685Z,26.70
2022-08-27T07:16:48.200Z,26.70
2022-08-27T07:19:20.022Z,26.70
2022-08-27T07:21:55.286Z,26.80
2022-08-27T07:24:25.440Z,26.70
2022-08-27T07:26:59.994Z,26.80
2022-08-27T07:29:32.310Z,26.70
2022-08-27T07:32:02.783Z,26.60
2022-08-27T07:34:37.766Z,26.70
2022-08-27T07:37:08.777Z,26.60
2022-08-27T07:39:38.797Z,26.70
2022-08-27T07:42:27.535Z,26.60
2022-08-27T07:44:57.802Z,26.70
2022-08-27T07:47:32.209Z,26.60
2022-08-27T07:50:02.719Z,26.60
2022-08-27T07:52:35.440Z,26.50
2022-08-27T07:55:07.325Z,26.60
2022-08-27T07:57:38.947Z,26.60
2022-08-27T08:00:12.298Z,26.50
2022-08-27T08:02:43.572Z,26.60
2022-08-27T08:05:16.245Z,26.60
2022-08-27T08:07:45.700Z,26.40
2022-08-27T08:10:15.885Z,26.40
2022-08-27T08:12:46.083Z,26.50
2022-08-27T08:15:21.668Z,26.50
2022-08-27T08:17:52.672Z,26.50
2022-08-27T08:20:36.019Z,26.50
2022-08-27T08:23:14.925Z,26.60
2022-08-27T08:25:47.217Z,26.60
2022-08-27T08:28:18.912Z,26.50
2022-08-27T08:30:50.798Z,26.50
2022-08-27T08:33:21.734Z,26.50
2022-08-27T08:35:52.652Z,26.50
2022-08-27T08:38:24.490Z,26.50
2022-08-27T08:40:58.173Z,26.50
2022-08-27T08:43:38.985Z,26.50
2022-08-27T08:46:26.957Z,26.60
2022-08-27T08:49:03.944Z,26.40
2022-08-27T08:51:43.703Z,26.50
2022-08-27T08:54:20.742Z,26.40
2022-08-27T08:57:23.215Z,26.50
2022-08-27T09:00:04.744Z,26.40
2022-08-27T09:02:36.879Z,26.40
2022-08-27T09:05:09.390Z,26.40
2022-08-27T09:07:58.256Z,26.50
2022-08-27T09:11:21.335Z,26.60
2022-08-27T09:13:52.982Z,26.60
2022-08-27T09:16:23.268Z,26.60
2022-08-27T09:18:53.892Z,26.50
2022-08-27T09:21:48.648Z,26.50
2022-08-27T09:24:21.693Z,26.50
2022-08-27T09:26:56.789Z,26.50
2022-08-27T09:29:30.407Z,26.50
2022-08-27T09:32:13.767Z,26.50
2022-08-27T09:34:49.643Z,26.50
2022-08-27T09:37:34.305Z,26.50
2022-08-27T09:40:22.895Z,26.50
2022-08-27T09:42:57.957Z,26.30
2022-08-27T09:45:34.313Z,26.30
2022-08-27T09:48:12.386Z,26.40
2022-08-27T09:50:57.479Z,26.20
2022-08-27T09:53:42.503Z,26.30
2022-08-27T09:56:32.701Z,26.20
2022-08-27T09:59:24.351Z,26.30
2022-08-27T10:02:01.445Z,26.00
2022-08-27T10:04:53.963Z,26.00
2022-08-27T10:07:54.906Z,25.90
2022-08-27T10:11:00.882Z,26.10
2022-08-27T10:13:42.516Z,26.10
2022-08-27T10:16:42.383Z,26.10
2022-08-27T10:19:33.379Z,25.90
2022-08-27T10:22:16.285Z,25.90
2022-08-27T10:25:01.199Z,25.80
2022-08-27T10:27:51.013Z,25.70
2022-08-27T10:30:34.299Z,25.60
2022-08-27T10:33:19.188Z,25.50
2022-08-27T10:36:05.438Z,25.50
2022-08-27T10:39:04.255Z,25.70
2022-08-27T10:41:43.881Z,25.80
2022-08-27T10:44:33.696Z,25.90
2022-08-27T10:47:33.359Z,25.80
2022-08-27T10:50:22.177Z,25.80
2022-08-27T10:53:07.650Z,25.80
2022-08-27T10:55:44.000Z,25.80
2022-08-27T10:58:40.676Z,25.70
2022-08-27T11:01:33.150Z,25.70
2022-08-27T11:04:31.140Z,25.80
2022-08-27T11:07:11.257Z,25.50
2022-08-27T11:09:58.382Z,25.40
2022-08-27T11:12:38.406Z,25.40
2022-08-27T11:15:24.710Z,25.50
2022-08-27T11:18:03.670Z,25.50
2022-08-27T11:21:08.816Z,25.60
2022-08-27T11:23:55.202Z,25.40
2022-08-27T11:26:25.398Z,25.40
2022-08-27T11:29:09.826Z,25.30
2022-08-27T11:31:55.860Z,25.40
2022-08-27T11:34:48.354Z,25.30
2022-08-27T11:37:43.884Z,25.50
2022-08-27T11:40:59.550Z,25.50
2022-08-27T11:43:34.927Z,25.50
2022-08-27T11:46:10.367Z,25.40
2022-08-27T11:48:57.346Z,25.40
2022-08-27T11:51:42.705Z,25.50
2022-08-27T11:54:29.350Z,25.30
2022-08-27T11:57:00.476Z,25.10
2022-08-27T11:59:35.426Z,25.10
2022-08-27T12:02:34.593Z,25.10
2022-08-27T12:05:26.797Z,25.30
2022-08-27T12:08:00.776Z,25.40
2022-08-27T12:10:43.657Z,25.10
2022-08-27T12:13:39.721Z,25.20
2022-08-27T12:16:27.172Z,25.30
2022-08-27T12:19:19.668Z,25.30
2022-08-27T12:22:17.463Z,25.10
2022-08-27T12:24:56.327Z,25.40
2022-08-27T12:27:36.821Z,25.40
2022-08-27T12:30:28.589Z,25.50
2022-08-27T12:33:12.084Z,25.50
2022-08-27T12:35:54.719Z,25.50
2022-08-27T12:38:54.602Z,25.60
2022-08-27T12:41:44.674Z,25.60
2022-08-27T12:44:18.065Z,25.60
2022-08-27T12:46:51.331Z,25.60
2022-08-27T12:49:38.900Z,25.60
2022-08-27T12:52:32.299Z,25.70
2022-08-27T12:55:19.877Z,25.80
2022-08-27T12:58:22.212Z,25.80
2022-08-27T13:01:01.205Z,25.80
2022-08-27T13:03:42.621Z,25.80
2022-08-27T13:06:23.986Z,25.90
2022-08-27T13:09:00.607Z,25.90
2022-08-27T13:11:58.103Z,25.90
2022-08-27T13:14:37.597Z,26.00
2022-08-27T13:17:18.565Z,26.00
2022-08-27T13:20:01.889Z,26.00
2022-08-27T13:22:41.558Z,26.10
2022-08-27T13:25:33.946Z,26.10
2022-08-27T13:28:13.708Z,26.10
2022-08-27T13:30:48.013Z,26.10
2022-08-27T13:33:30.185Z,26.20
2022-08-27T13:36:03.253Z,26.20
2022-08-27T13:38:39.460Z,26.30
2022-08-27T13:41:21.381Z,26.30
2022-08-27T13:43:58.503Z,26.40
2022-08-27T13:46:34.366Z,26.40
2022-08-27T13:49:10.592Z,26.40
2022-08-27T13:51:46.479Z,26.40
2022-08-27T13:54:20.807Z,26.40
2022-08-27T13:56:58.510Z,26.40
2022-08-27T13:59:32.174Z,26.50
2022-08-27T14:02:17.712Z,26.60
2022-08-27T14:05:12.180Z,26.60
2022-08-27T14:07:55.182Z,26.70
2022-08-27T14:10:38.783Z,26.70
2022-08-27T14:13:22.350Z,26.60
2022-08-27T14:15:58.085Z,26.70
2022-08-27T14:18:58.530Z,26.70
2022-08-27T14:21:29.367Z,26.80
2022-08-27T14:23:59.422Z,26.90
2022-08-27T14:26:31.238Z,27.00
2022-08-27T14:29:02.590Z,27.00
2022-08-27T14:31:34.033Z,27.10
2022-08-27T14:34:07.459Z,27.20
2022-08-27T14:36:42.595Z,27.20
2022-08-27T14:39:13.970Z,27.20
2022-08-27T14:41:46.874Z,27.20
2022-08-27T14:44:24.099Z,27.20
2022-08-27T14:47:00.653Z,27.20
2022-08-27T14:49:38.834Z,27.30
2022-08-27T14:52:15.055Z,27.40
2022-08-27T14:54:45.577Z,27.50
2022-08-27T14:57:16.345Z,27.50
2022-08-27T14:59:46.773Z,27.50
2022-08-27T15:02:19.938Z,27.60
2022-08-27T15:04:53.590Z,27.50
2022-08-27T15:07:27.193Z,27.60
2022-08-27T15:10:00.801Z,27.70
2022-08-27T15:12:32.640Z,27.80
2022-08-27T15:15:04.942Z,27.90
2022-08-27T15:17:36.352Z,27.90
2022-08-27T15:20:10.131Z,28.00
2022-08-27T15:22:48.599Z,28.00
2022-08-27T15:25:19.432Z,28.10
2022-08-27T15:27:50.739Z,28.00
2022-08-27T15:30:30.994Z,28.10
2022-08-27T15:33:08.427Z,28.20
2022-08-27T15:35:41.739Z,28.10
2022-08-27T15:38:15.037Z,28.20
2022-08-27T15:40:49.155Z,28.30
2022-08-27T15:43:19.830Z,28.40
2022-08-27T15:45:49.514Z,28.50
2022-08-27T15:48:21.226Z,28.50
2022-08-27T15:51:01.575Z,28.40
2022-08-27T15:53:34.028Z,28.50
2022-08-27T15:56:06.141Z,28.60
2022-08-27T15:58:40.905Z,28.80
2022-08-27T16:01:17.674Z,28.90
2022-08-27T16:03:48.893Z,28.80
2022-08-27T16:06:26.248Z,28.90
2022-08-27T16:08:57.518Z,29.10
2022-08-27T16:11:28.798Z,29.20
2022-08-27T16:14:02.638Z,29.30
2022-08-27T16:16:36.634Z,29.20
2022-08-27T16:19:15.994Z,29.10
2022-08-27T16:22:02.809Z,28.90
2022-08-27T16:24:36.933Z,28.80
2022-08-27T16:27:09.679Z,29.00
2022-08-27T16:29:40.760Z,28.80
2022-08-27T16:32:31.786Z,28.70
2022-08-27T16:35:03.476Z,28.70
2022-08-27T16:37:43.069Z,28.70
2022-08-27T16:40:17.400Z,28.90
2022-08-27T16:42:57.630Z,29.00
2022-08-27T16:45:28.940Z,29.30
2022-08-27T16:48:22.261Z,29.30
2022-08-27T16:50:54.215Z,29.30
2022-08-27T16:53:29.375Z,29.40
2022-08-27T16:56:01.853Z,29.60
2022-08-27T16:58:35.566Z,29.50
2022-08-27T17:01:11.835Z,29.30
2022-08-27T17:04:09.827Z,29.30
2022-08-27T17:06:46.909Z,29.50
2022-08-27T17:09:24.967Z,29.50
2022-08-27T17:12:08.767Z,29.30
2022-08-27T17:14:45.338Z,29.40
2022-08-27T17:17:23.259Z,29.60
2022-08-27T17:19:58.164Z,29.80
2022-08-27T17:22:30.273Z,30.00
2022-08-27T17:25:02.930Z,30.10
2022-08-27T17:27:36.703Z,30.00
2022-08-27T17:30:19.555Z,29.90
2022-08-27T17:32:53.159Z,30.00
2022-08-27T17:35:26.206Z,30.10
2022-08-27T17:37:57.996Z,30.30
2022-08-27T17:40:32.652Z,30.40
2022-08-27T17:43:02.421Z,30.20
2022-08-27T17:45:35.586Z,30.20
2022-08-27T17:48:14.153Z,30.10
2022-08-27T17:50:50.183Z,30.10
2022-08-27T17:53:32.623Z,30.50
2022-08-27T17:56:02.958Z,30.60
2022-08-27T17:58:37.639Z,30.60
2022-08-27T18:01:12.432Z,30.50
2022-08-27T18:03:48.111Z,30.40
2022-08-27T18:06:19.470Z,30.80
2022-08-27T18:08:54.932Z,30.50
2022-08-27T18:11:26.347Z,30.50
2022-08-27T18:14:04.914Z,30.70
2022-08-27T18:16:39.323Z,30.70
2022-08-27T18:19:11.805Z,30.70
2022-08-27T18:21:46.595Z,30.50
2022-08-27T18:24:20.301Z,30.50
2022-08-27T18:26:50.975Z,30.50
2022-08-27T18:29:22.037Z,30.40
2022-08-27T18:31:58.044Z,30.40
2022-08-27T18:34:30.635Z,30.50
2022-08-27T18:37:06.051Z,30.80
2022-08-27T18:39:39.623Z,30.70
2022-08-27T18:42:12.294Z,30.80
2022-08-27T18:44:46.860Z,30.70
2022-08-27T18:47:19.131Z,30.70
2022-08-27T18:49:50.881Z,30.70
2022-08-27T18:52:28.042Z,30.90
2022-08-27T18:54:58.917Z,31.10
2022-08-27T18:57:29.788Z,31.20
2022-08-27T19:00:03.986Z,31.50
2022-08-27T19:02:35.326Z,31.20
2022-08-27T19:05:07.903Z,31.30
2022-08-27T19:07:38.644Z,31.40
2022-08-27T19:10:12.636Z,31.40
2022-08-27T19:12:46.638Z,31.40
2022-08-27T19:15:20.128Z,31.50
2022-08-27T19:17:56.189Z,31.70
2022-08-27T19:20:28.929Z,31.80
2022-08-27T19:23:01.299Z,31.90
2022-08-27T19:25:33.845Z,31.90
2022-08-27T19:28:05.297Z,31.80
2022-08-27T19:30:37.057Z,31.70
2022-08-27T19:33:10.128Z,31.80
2022-08-27T19:35:44.136Z,31.80
2022-08-27T19:38:15.754Z,32.00
2022-08-27T19:40:49.639Z,32.00
2022-08-27T19:43:20.425Z,31.90
2022-08-27T19:45:51.602Z,31.80
2022-08-27T19:48:25.071Z,31.80
2022-08-27T19:50:57.767Z,31.80
2022-08-27T19:53:36.680Z,31.70
2022-08-27T19:56:11.830Z,32.00
2022-08-27T19:58:43.787Z,32.00
2022-08-27T20:01:15.589Z,32.20
2022-08-27T20:03:50.286Z,32.50
2022-08-27T20:06:23.801Z,32.60
2022-08-27T20:08:55.272Z,32.50
2022-08-27T20:11:32.758Z,32.30
2022-08-27T20:14:04.592Z,32.20
2022-08-27T20:16:38.334Z,32.40
2022-08-27T20:19:12.328Z,32.30
2022-08-27T20:21:42.507Z,32.10
2022-08-27T20:24:17.199Z,32.10
2022-08-27T20:26:51.268Z,31.90
2022-08-27T20:29:32.583Z,32.00
2022-08-27T20:32:04.861Z,32.20
2022-08-27T20:34:35.945Z,32.30
2022-08-27T20:37:06.824Z,32.30
2022-08-27T20:39:37.446Z,32.30
2022-08-27T20:42:12.206Z,32.30
2022-08-27T20:44:42.157Z,32.50
2022-08-27T20:47:16.739Z,32.40
2022-08-27T20:49:48.301Z,32.40
2022-08-27T20:52:20.682Z,32.40
2022-08-27T20:54:53.154Z,32.50
2022-08-27T20:57:25.402Z,32.60
2022-08-27T21:00:16.729Z,32.80
2022-08-27T21:02:50.726Z,32.70
2022-08-27T21:05:24.493Z,32.80
2022-08-27T21:07:56.111Z,32.70
2022-08-27T21:10:27.653Z,32.70
2022-08-27T21:13:01.225Z,32.80
2022-08-27T21:15:35.605Z,32.80
2022-08-27T21:18:07.011Z,32.80
2022-08-27T21:20:38.551Z,32.80
2022-08-27T21:23:10.265Z,32.80
2022-08-27T21:25:42.483Z,32.80
2022-08-27T21:28:15.625Z,32.90
2022-08-27T21:30:47.345Z,33.10
2022-08-27T21:33:19.120Z,33.10
2022-08-27T21:35:55.678Z,32.90
2022-08-27T21:38:27.078Z,32.70
2022-08-27T21:40:58.506Z,32.60
2022-08-27T21:43:32.458Z,32.50
2022-08-27T21:46:03.140Z,32.80
2022-08-27T21:48:35.650Z,32.80
2022-08-27T21:51:24.286Z,32.90
2022-08-27T21:53:55.810Z,33.10
2022-08-27T21:56:26.453Z,33.10
2022-08-27T21:58:58.079Z,33.10
2022-08-27T22:01:32.269Z,33.10
2022-08-27T22:04:03.491Z,33.00
2022-08-27T22:06:33.933Z,33.00
2022-08-27T22:09:04.527Z,33.40
2022-08-27T22:11:36.431Z,34.60
2022-08-27T22:14:06.976Z,34.30
2022-08-27T22:16:40.203Z,33.40
2022-08-27T22:19:12.438Z,33.10
2022-08-27T22:21:44.743Z,33.00
2022-08-27T22:24:17.475Z,33.00
2022-08-27T22:26:47.280Z,33.00
2022-08-27T22:29:19.561Z,32.90
2022-08-27T22:31:49.673Z,32.90
2022-08-27T22:34:19.345Z,32.70
2022-08-27T22:36:50.824Z,32.70
2022-08-27T22:39:51.438Z,32.60
2022-08-27T22:42:22.784Z,32.60
2022-08-27T22:44:56.357Z,32.60
2022-08-27T22:47:32.457Z,32.50
2022-08-27T22:50:08.621Z,32.50
2022-08-27T22:52:43.045Z,32.50
2022-08-27T22:55:20.132Z,32.60
2022-08-27T22:57:52.702Z,32.60
2022-08-27T23:00:31.627Z,32.50
2022-08-27T23:03:06.848Z,32.40
2022-08-27T23:05:42.348Z,32.20
2022-08-27T23:08:16.096Z,32.10
2022-08-27T23:10:46.987Z,32.00
2022-08-27T23:13:17.148Z,32.00
2022-08-27T23:15:51.335Z,32.00
2022-08-27T23:18:21.530Z,32.00
2022-08-27T23:20:52.167Z,32.00
2022-08-27T23:23:22.164Z,32.00
2022-08-27T23:26:12.856Z,31.90
2022-08-27T23:28:45.610Z,31.80
2022-08-27T23:31:17.458Z,31.80
2022-08-27T23:33:47.956Z,31.70
2022-08-27T23:36:20.591Z,31.60
2022-08-27T23:38:52.894Z,31.50
2022-08-27T23:41:26.301Z,31.50
2022-08-27T23:43:57.851Z,31.60
2022-08-27T23:46:27.981Z,31.70
2022-08-27T23:49:00.642Z,31.60
2022-08-27T23:51:30.549Z,31.40
2022-08-27T23:54:00.771Z,31.40
2022-08-27T23:56:32.381Z,31.40
2022-08-27T23:59:03.308Z,31.30
